Time;durP1;ratioP1;P1;durP2;ratioP2;P2;SDS_P1;SDS_P2;PMS_P1;PMS_P2;Temp;Humidity;BMP_temperature;BMP_pressure;BME280_temperature;BME280_humidity;BME280_pressure;Samples;Min_cycle;Max_cycle;Signal;HPM_P1;HPM_P2
2022/06/13 00:02:11;;;;;;;;;;;;;;;20.72;52.70;97950.25;5096088;28;19946;-56
2022/06/13 00:05:00;;;;;;;;;;;;;;;20.69;52.50;97951.81;5083359;28;20489;-54
2022/06/13 00:07:50;;;;;;;;;;;;;;;20.46;52.79;97951.13;5095587;28;19931;-56
2022/06/13 00:10:39;;;;;;;;;;;;;;;20.43;52.79;97952.66;5080211;28;20379;-55
2022/06/13 00:13:27;;;;;;;;;;;;;;;20.40;52.76;97954.22;5088396;28;20014;-55
2022/06/13 00:16:25;;;;;;;;;;;;;;;20.38;52.68;97953.78;5099057;28;19923;-53
2022/06/13 00:19:14;;;;;;;;;;;;;;;20.37;52.58;97957.72;5099942;28;20332;-53
2022/06/13 00:22:05;;;;;;;;;;;;;;;20.36;52.50;97950.63;5089379;28;19924;-54
2022/06/13 00:24:55;;;;;;;;;;;;;;;20.43;52.37;97949.91;5094665;28;19920;-53
2022/06/13 00:27:43;;;;;;;;;;;;;;;20.38;51.90;97942.75;5088075;28;19924;-55
2022/06/13 00:33:44;;;;;;;;;;;;;;;20.52;51.48;97938.63;5096634;28;20214;-54
2022/06/13 00:36:35;;;;;;;;;;;;;;;20.30;52.22;97946.59;5097448;28;19923;-55
2022/06/13 00:39:24;;;;;;;;;;;;;;;20.26;52.07;97956.78;5088001;28;20280;-55
2022/06/13 00:42:15;;;;;;;;;;;;;;;20.20;52.20;97955.53;5098303;28;20365;-54
2022/06/13 00:45:16;;;;;;;;;;;;;;;20.31;52.18;97955.69;5102480;28;19927;-55
2022/06/13 00:48:04;;;;;;;;;;;;;;;20.24;51.92;97964.66;5097448;28;20371;-55
2022/06/13 00:50:56;;;;;;;;;;;;;;;20.22;51.85;97966.97;5102331;28;19924;-54
2022/06/13 00:53:46;;;;;;;;;;;;;;;20.20;51.97;97963.00;5103440;28;20349;-52
2022/06/13 00:56:34;;;;;;;;;;;;;;;20.19;52.23;97955.88;5103496;28;19931;-54
2022/06/13 00:59:24;;;;;;;;;;;;;;;20.15;51.79;97953.88;5104059;28;19935;-54
2022/06/13 01:02:12;;;;;;;;;;;;;;;20.22;51.39;97955.94;5098225;28;20205;-55
2022/06/13 01:05:03;;;;;;;;;;;;;;;20.15;50.74;97955.84;5100734;28;19919;-55
2022/06/13 01:07:53;;;;;;;;;;;;;;;20.13;50.55;97966.44;5097311;28;20283;-54
2022/06/13 01:14:26;;;;;;;;;;;;;;;20.06;49.33;97967.16;5091611;28;19920;-53
2022/06/13 01:17:22;;;;;;;;;;;;;;;20.06;51.38;97991.97;5094546;28;20010;-53
2022/06/13 01:20:16;;;;;;;;;;;;;;;20.04;48.56;98010.88;5094662;28;19930;-53
2022/06/13 01:23:25;;;;;;;;;;;;;;;20.03;48.32;98030.56;5087023;28;20454;-54
2022/06/13 01:26:39;;;;;;;;;;;;;;;20.01;48.23;98057.69;5090082;28;20384;-53
2022/06/13 01:29:42;;;;;;;;;;;;;;;19.94;46.28;98052.06;5096986;28;19955;-53
2022/06/13 01:32:38;;;;;;;;;;;;;;;19.98;47.96;98039.13;5094030;28;19920;-55
2022/06/13 01:35:31;;;;;;;;;;;;;;;19.93;49.12;98037.47;5099776;28;19924;-55
2022/06/13 01:38:47;;;;;;;;;;;;;;;19.87;50.00;98033.44;5085858;28;20007;-53
2022/06/13 01:41:44;;;;;;;;;;;;;;;19.92;49.80;98018.53;5098213;28;19924;-53
2022/06/13 01:44:35;;;;;;;;;;;;;;;19.92;50.49;98004.75;5093050;28;19951;-54
2022/06/13 01:47:24;;;;;;;;;;;;;;;19.76;50.23;98021.44;5084578;28;20408;-51
2022/06/13 01:50:18;;;;;;;;;;;;;;;19.85;51.53;98013.72;5091578;28;19920;-54
2022/06/13 01:53:12;;;;;;;;;;;;;;;19.78;51.46;98019.13;5094874;28;19920;-54
2022/06/13 01:56:01;;;;;;;;;;;;;;;19.75;51.04;98011.56;5090421;28;19919;-56
2022/06/13 01:58:54;;;;;;;;;;;;;;;19.61;51.65;98018.47;5100303;28;19958;-50
2022/06/13 02:01:43;;;;;;;;;;;;;;;19.58;51.70;98015.59;5082799;28;20378;-53
2022/06/13 02:04:32;;;;;;;;;;;;;;;19.49;52.15;98020.56;5089549;28;20260;-54
2022/06/13 02:07:23;;;;;;;;;;;;;;;19.41;52.07;98011.38;5095335;28;19930;-55
2022/06/13 02:10:13;;;;;;;;;;;;;;;19.41;52.32;98007.84;5091306;28;20269;-56
2022/06/13 02:13:02;;;;;;;;;;;;;;;19.27;52.93;98000.91;5082490;28;20392;-54
2022/06/13 02:16:32;;;;;;;;;;;;;;;19.11;52.22;97989.19;5096747;28;19924;-55
2022/06/13 02:19:22;;;;;;;;;;;;;;;18.98;51.87;97988.56;5093053;28;20023;-55
2022/06/13 02:22:11;;;;;;;;;;;;;;;18.93;52.02;97993.59;5099137;28;20256;-55
2022/06/13 02:25:02;;;;;;;;;;;;;;;18.89;52.23;98001.75;5094439;28;19928;-54
2022/06/13 02:27:51;;;;;;;;;;;;;;;18.85;52.42;97989.88;5095754;28;20418;-52
2022/06/13 02:31:04;;;;;;;;;;;;;;;18.97;52.97;97986.19;5086710;28;19932;-55
2022/06/13 02:33:57;;;;;;;;;;;;;;;18.80;52.99;97991.00;5099548;28;20422;-54
2022/06/13 02:36:46;;;;;;;;;;;;;;;18.71;53.28;97993.16;5081896;28;19931;-55
2022/06/13 02:39:40;;;;;;;;;;;;;;;18.67;53.23;97995.00;5088116;28;19960;-55
2022/06/13 02:42:31;;;;;;;;;;;;;;;18.61;53.13;98001.19;5091724;28;20283;-55
2022/06/13 02:45:20;;;;;;;;;;;;;;;18.52;53.45;97990.38;5098298;28;19999;-55
2022/06/13 02:48:14;;;;;;;;;;;;;;;18.44;53.92;97997.69;5081642;28;19920;-55
2022/06/13 02:51:03;;;;;;;;;;;;;;;18.38;53.67;97992.84;5096338;28;19934;-56
2022/06/13 02:53:53;;;;;;;;;;;;;;;18.36;54.05;98006.16;5096783;28;19920;-53
2022/06/13 02:59:52;;;;;;;;;;;;;;;18.27;54.33;98009.91;5101361;28;19997;-55
2022/06/13 03:02:44;;;;;;;;;;;;;;;18.29;54.55;98013.09;5096776;28;20135;-53
2022/06/13 03:09:12;;;;;;;;;;;;;;;18.31;54.61;98018.22;5098799;28;19955;-53
2022/06/13 03:12:02;;;;;;;;;;;;;;;18.26;54.79;98019.28;5097614;28;20211;-54
2022/06/13 03:14:56;;;;;;;;;;;;;;;18.27;54.43;98022.88;5092553;28;19924;-55
2022/06/13 03:17:45;;;;;;;;;;;;;;;18.23;54.38;98033.78;5100165;28;19920;-55
2022/06/13 03:23:50;;;;;;;;;;;;;;;18.19;54.21;98030.16;5087383;28;19923;-54
2022/06/13 03:26:39;;;;;;;;;;;;;;;18.15;54.20;98028.47;5101656;27;19939;-54
2022/06/13 03:29:28;;;;;;;;;;;;;;;18.13;54.09;98025.28;5100713;28;19920;-55
2022/06/13 03:32:19;;;;;;;;;;;;;;;18.09;53.73;98027.16;5098565;28;19928;-56
2022/06/13 03:35:09;;;;;;;;;;;;;;;18.01;53.02;98021.50;5091477;28;19924;-52
2022/06/13 03:38:23;;;;;;;;;;;;;;;18.03;52.29;98021.13;5097501;28;20024;-55
2022/06/13 03:41:40;;;;;;;;;;;;;;;18.04;50.77;98028.22;5094505;28;19928;-57
2022/06/13 03:44:32;;;;;;;;;;;;;;;18.00;50.37;98017.16;5095916;28;19932;-55
2022/06/13 03:47:23;;;;;;;;;;;;;;;18.02;49.84;98027.78;5100438;28;19927;-55
2022/06/13 03:50:13;;;;;;;;;;;;;;;17.97;49.47;98039.06;5094136;28;19928;-57
2022/06/13 03:53:02;;;;;;;;;;;;;;;17.92;49.85;98036.59;5100560;28;19928;-56
2022/06/13 03:55:52;;;;;;;;;;;;;;;17.87;49.55;98034.09;5102145;28;19997;-55
2022/06/13 04:01:55;;;;;;;;;;;;;;;17.87;48.84;98034.09;5096976;28;19923;-57
2022/06/13 04:04:46;;;;;;;;;;;;;;;17.84;48.67;98034.81;5087834;28;19932;-58
2022/06/13 04:07:35;;;;;;;;;;;;;;;17.80;48.80;98035.53;5080433;28;19970;-57
2022/06/13 04:10:24;;;;;;;;;;;;;;;17.82;48.86;98026.13;5090828;28;20391;-56
2022/06/13 04:13:16;;;;;;;;;;;;;;;17.84;49.54;98030.09;5079632;28;20339;-56
2022/06/13 04:16:09;;;;;;;;;;;;;;;17.89;49.61;98031.78;5093266;28;20275;-56
2022/06/13 04:19:03;;;;;;;;;;;;;;;17.96;51.16;98034.72;5093031;28;19924;-55
2022/06/13 04:21:55;;;;;;;;;;;;;;;17.88;52.16;98030.19;5103141;28;19931;-55
2022/06/13 04:24:48;;;;;;;;;;;;;;;17.89;52.32;98034.53;5098852;28;19931;-54
2022/06/13 04:27:39;;;;;;;;;;;;;;;17.88;52.97;98031.00;5096923;28;19980;-57
2022/06/13 04:30:27;;;;;;;;;;;;;;;17.91;53.00;98030.28;5096039;28;20132;-57
2022/06/13 04:33:17;;;;;;;;;;;;;;;17.94;52.02;98035.06;5084364;28;19920;-50
2022/06/13 04:36:06;;;;;;;;;;;;;;;18.00;51.84;98035.56;5090562;28;20002;-54
2022/06/13 04:38:56;;;;;;;;;;;;;;;17.92;51.65;98039.34;5088385;28;20008;-53
2022/06/13 04:44:59;;;;;;;;;;;;;;;18.01;51.38;98049.00;5097634;28;19923;-54
2022/06/13 04:47:51;;;;;;;;;;;;;;;18.02;50.53;98049.78;5097126;28;19926;-55
2022/06/13 04:50:40;;;;;;;;;;;;;;;18.14;50.51;98049.66;5098870;28;19936;-56
2022/06/13 04:53:30;;;;;;;;;;;;;;;18.33;49.42;98066.22;5096121;28;19920;-56
2022/06/13 04:56:44;;;;;;;;;;;;;;;18.14;48.91;98068.91;5094700;28;19998;-55
2022/06/13 04:59:40;;;;;;;;;;;;;;;18.14;48.08;98068.91;5094036;28;20242;-54
2022/06/13 05:02:33;;;;;;;;;;;;;;;18.12;48.43;98071.22;5092005;28;19940;-52
2022/06/13 05:05:26;;;;;;;;;;;;;;;18.28;46.47;98068.47;5098566;28;20253;-56
2022/06/13 05:12:17;;;;;;;;;;;;;;;18.12;47.14;98076.72;5093125;28;19919;-55
2022/06/13 05:15:07;;;;;;;;;;;;;;;18.20;47.09;98085.94;5100323;28;20265;-53
2022/06/13 05:18:03;;;;;;;;;;;;;;;18.08;47.11;98088.78;5089140;28;20198;-52
2022/06/13 05:20:55;;;;;;;;;;;;;;;18.24;48.46;98098.63;5087117;28;20013;-55
2022/06/13 05:23:51;;;;;;;;;;;;;;;18.29;47.41;98103.06;5101465;28;19932;-52
2022/06/13 05:26:40;;;;;;;;;;;;;;;18.21;46.71;98107.56;5101910;28;20280;-56
2022/06/13 05:29:54;;;;;;;;;;;;;;;18.19;46.96;98103.59;5094427;28;20293;-55
2022/06/13 05:32:43;;;;;;;;;;;;;;;18.25;46.63;98105.72;5102870;28;19920;-55
2022/06/13 05:35:32;;;;;;;;;;;;;;;18.25;46.99;98102.97;5099568;28;19931;-56
2022/06/13 05:38:21;;;;;;;;;;;;;;;18.24;47.10;98104.13;5089479;28;19920;-53
2022/06/13 05:41:10;;;;;;;;;;;;;;;18.21;47.64;98104.81;5095793;28;20355;-54
2022/06/13 05:43:58;;;;;;;;;;;;;;;18.24;47.64;98115.13;5098945;28;19923;-54
2022/06/13 05:50:03;;;;;;;;;;;;;;;18.33;48.09;98101.97;5101113;28;20134;-55
2022/06/13 05:52:51;;;;;;;;;;;;;;;18.38;47.09;98102.88;5096082;28;19927;-55
2022/06/13 05:55:40;;;;;;;;;;;;;;;18.43;48.99;98110.81;5100830;28;19931;-56
2022/06/13 05:58:28;;;;;;;;;;;;;;;18.57;49.57;98111.16;5095463;28;19919;-54
2022/06/13 06:01:17;;;;;;;;;;;;;;;18.54;46.88;98123.69;5092262;28;20129;-55
2022/06/13 06:04:06;;;;;;;;;;;;;;;18.45;46.12;98120.31;5099717;28;20270;-55
2022/06/13 06:06:55;;;;;;;;;;;;;;;18.61;46.31;98123.03;5098639;28;19928;-53
2022/06/13 06:09:44;;;;;;;;;;;;;;;18.69;46.31;98122.06;5099110;28;20235;-56
2022/06/13 06:12:32;;;;;;;;;;;;;;;18.75;45.99;98117.06;5099638;28;19924;-55
2022/06/13 06:15:21;;;;;;;;;;;;;;;18.75;45.63;98123.41;5101646;28;20374;-57
2022/06/13 06:21:23;;;;;;;;;;;;;;;18.73;45.86;98133.94;5101539;28;20378;-53
2022/06/13 06:24:13;;;;;;;;;;;;;;;18.74;44.80;98135.53;5095091;28;19972;-52
2022/06/13 06:27:24;;;;;;;;;;;;;;;18.87;44.94;98135.44;5093552;28;19950;-54
2022/06/13 06:30:14;;;;;;;;;;;;;;;19.00;45.87;98140.44;5095792;28;19967;-53
2022/06/13 06:33:03;;;;;;;;;;;;;;;19.23;44.81;98143.28;5097261;28;20457;-55
2022/06/13 06:35:51;;;;;;;;;;;;;;;19.22;44.73;98146.38;5093279;28;19921;-55
2022/06/13 06:38:40;;;;;;;;;;;;;;;19.35;43.85;98145.88;5102377;28;20016;-56
2022/06/13 06:41:30;;;;;;;;;;;;;;;19.38;48.19;98150.66;5094596;28;19934;-54
2022/06/13 06:44:43;;;;;;;;;;;;;;;19.78;44.99;98152.22;5090842;28;19935;-55
2022/06/13 06:47:31;;;;;;;;;;;;;;;19.45;43.98;98149.22;5097290;28;20381;-55
2022/06/13 06:50:21;;;;;;;;;;;;;;;19.50;46.61;98146.16;5096222;28;20246;-53
2022/06/13 06:53:10;;;;;;;;;;;;;;;19.77;43.58;98138.81;5099936;28;19927;-56
2022/06/13 07:02:14;;;;;;;;;;;;;;;19.83;43.30;98154.69;5087985;28;19920;-54
2022/06/13 07:05:04;;;;;;;;;;;;;;;19.79;43.21;98153.03;5088646;28;21015;-55
2022/06/13 07:07:52;;;;;;;;;;;;;;;19.74;43.58;98156.09;5089785;28;19923;-52
2022/06/13 07:10:45;;;;;;;;;;;;;;;19.78;42.98;98156.94;5094299;28;19923;-53
2022/06/13 07:13:34;;;;;;;;;;;;;;;20.11;45.39;98159.91;5098950;28;20008;-56
2022/06/13 07:16:27;;;;;;;;;;;;;;;19.83;42.86;98159.41;5096935;28;19935;-54
2022/06/13 07:19:16;;;;;;;;;;;;;;;19.67;42.88;98156.75;5093523;28;20299;-52
2022/06/13 07:22:30;;;;;;;;;;;;;;;19.96;42.98;98165.53;5098985;28;19920;-57
2022/06/13 07:25:20;;;;;;;;;;;;;;;20.03;42.71;98158.19;5075573;28;19920;-56
2022/06/13 07:28:08;;;;;;;;;;;;;;;20.01;45.45;98159.72;5091510;28;19994;-53
2022/06/13 07:30:57;;;;;;;;;;;;;;;20.33;43.98;98166.56;5100462;28;19923;-54
2022/06/13 07:33:48;;;;;;;;;;;;;;;20.32;43.25;98164.97;5093096;28;19923;-56
2022/06/13 07:36:36;;;;;;;;;;;;;;;20.51;43.46;98171.63;5094788;28;20295;-54
2022/06/13 07:39:30;;;;;;;;;;;;;;;20.65;43.14;98163.53;5086468;28;20032;-55
2022/06/13 07:42:18;;;;;;;;;;;;;;;20.69;44.87;98161.63;5088824;28;19920;-54
2022/06/13 07:45:07;;;;;;;;;;;;;;;20.91;43.96;98174.56;5086896;28;20455;-55
2022/06/13 07:48:05;;;;;;;;;;;;;;;20.95;44.24;98169.13;5088612;28;19924;-55
2022/06/13 07:54:09;;;;;;;;;;;;;;;20.75;41.83;98160.16;5092531;28;19927;-56
2022/06/13 07:57:01;;;;;;;;;;;;;;;20.82;41.50;98165.75;5087493;28;19927;-54
2022/06/13 07:59:55;;;;;;;;;;;;;;;20.88;42.89;98163.50;5090405;28;20732;-57
2022/06/13 08:02:44;;;;;;;;;;;;;;;20.93;42.58;98172.25;5094947;28;20425;-56
2022/06/13 08:05:35;;;;;;;;;;;;;;;21.09;42.93;98163.78;5089842;28;19924;-54
2022/06/13 08:08:25;;;;;;;;;;;;;;;20.92;39.99;98165.13;5099464;28;19928;-52
2022/06/13 08:11:14;;;;;;;;;;;;;;;21.15;41.17;98161.50;5095036;28;19923;-55
2022/06/13 08:14:06;;;;;;;;;;;;;;;21.06;40.80;98172.03;5093493;28;19924;-56
2022/06/13 08:20:08;;;;;;;;;;;;;;;21.20;41.40;98172.22;5098234;28;19928;-57
2022/06/13 08:22:58;;;;;;;;;;;;;;;21.09;40.26;98168.50;5094524;28;20181;-54
2022/06/13 08:25:49;;;;;;;;;;;;;;;21.47;41.48;98177.72;5094522;28;20256;-54
2022/06/13 08:28:39;;;;;;;;;;;;;;;21.33;42.53;98165.28;5097323;28;19931;-55
2022/06/13 08:31:27;;;;;;;;;;;;;;;21.83;41.75;98174.13;5099231;28;20207;-54
2022/06/13 08:34:15;;;;;;;;;;;;;;;21.66;41.82;98183.84;5099199;28;19919;-54
2022/06/13 08:37:04;;;;;;;;;;;;;;;21.62;39.86;98183.00;5090657;28;20017;-53
2022/06/13 08:39:52;;;;;;;;;;;;;;;21.55;39.50;98198.72;5084833;28;19920;-57
2022/06/13 08:42:44;;;;;;;;;;;;;;;21.49;39.99;98189.97;5086812;28;19969;-57
2022/06/13 08:45:36;;;;;;;;;;;;;;;21.69;41.49;98196.13;5099947;28;19932;-57
2022/06/13 08:48:26;;;;;;;;;;;;;;;21.54;38.95;98195.16;5094323;28;19919;-56
2022/06/13 08:51:16;;;;;;;;;;;;;;;21.57;39.65;98197.19;5084203;28;19920;-57
2022/06/13 08:54:04;;;;;;;;;;;;;;;21.45;39.93;98192.69;5084241;28;19924;-56
2022/06/13 08:57:18;;;;;;;;;;;;;;;21.33;39.60;98208.72;5080530;28;20317;-51
2022/06/13 09:00:08;;;;;;;;;;;;;;;21.01;40.40;98213.78;5091901;28;20466;-53
2022/06/13 09:03:00;;;;;;;;;;;;;;;21.35;40.19;98198.88;5087392;28;19978;-55
2022/06/13 09:05:51;;;;;;;;;;;;;;;21.51;41.33;98217.22;5097182;28;19924;-56
2022/06/13 09:08:47;;;;;;;;;;;;;;;21.64;40.10;98211.09;5092827;28;20240;-56
2022/06/13 09:11:43;;;;;;;;;;;;;;;21.52;40.39;98216.03;5100394;28;20056;-54
2022/06/13 09:14:33;;;;;;;;;;;;;;;21.43;40.87;98213.59;5093453;28;19950;-56
2022/06/13 09:17:25;;;;;;;;;;;;;;;21.60;40.01;98206.69;5095282;28;19926;-57
2022/06/13 09:20:15;;;;;;;;;;;;;;;21.61;39.11;98206.28;5102963;28;19924;-57
2022/06/13 09:23:05;;;;;;;;;;;;;;;21.71;40.56;98210.34;5096283;28;19931;-56
2022/06/13 09:25:54;;;;;;;;;;;;;;;21.70;38.87;98200.47;5101654;28;19920;-54
2022/06/13 09:28:45;;;;;;;;;;;;;;;21.87;40.44;98222.00;5098009;28;19924;-56
2022/06/13 09:31:35;;;;;;;;;;;;;;;21.83;39.00;98210.09;5094961;28;20026;-56
2022/06/13 09:34:53;;;;;;;;;;;;;;;21.90;40.17;98212.97;5098726;28;19972;-54
2022/06/13 09:37:42;;;;;;;;;;;;;;;21.77;40.49;98224.66;5097376;28;20006;-57
2022/06/13 09:40:32;;;;;;;;;;;;;;;21.74;37.95;98230.94;5100622;28;20323;-57
2022/06/13 09:43:24;;;;;;;;;;;;;;;21.67;40.22;98220.56;5102830;28;19969;-54
2022/06/13 09:46:14;;;;;;;;;;;;;;;21.32;39.23;98227.28;5090843;28;20260;-55
2022/06/13 09:49:07;;;;;;;;;;;;;;;21.30;40.14;98223.28;5101455;28;19927;-55
2022/06/13 09:55:12;;;;;;;;;;;;;;;21.48;37.64;98224.31;5096484;28;19990;-56
2022/06/13 09:58:04;;;;;;;;;;;;;;;21.69;39.34;98218.25;5087706;28;19924;-55
2022/06/13 10:00:56;;;;;;;;;;;;;;;21.59;36.27;98216.16;5085693;28;19919;-54
2022/06/13 10:03:46;;;;;;;;;;;;;;;21.77;38.55;98213.59;5089674;28;20026;-56
2022/06/13 10:06:37;;;;;;;;;;;;;;;21.97;38.60;98223.28;5082315;28;19931;-56
2022/06/13 10:09:30;;;;;;;;;;;;;;;22.09;36.86;98219.47;5095709;28;20215;-57
2022/06/13 10:12:26;;;;;;;;;;;;;;;21.70;37.30;98236.44;5083292;28;20287;-56
2022/06/13 10:15:18;;;;;;;;;;;;;;;21.67;37.75;98221.38;5096686;28;19919;-56
2022/06/13 10:18:25;;;;;;;;;;;;;;;21.73;36.93;98219.06;5088143;28;19924;-55
2022/06/13 10:21:15;;;;;;;;;;;;;;;21.71;33.79;98233.28;5100202;28;20363;-57
2022/06/13 10:24:09;;;;;;;;;;;;;;;21.84;33.21;98225.53;5086669;28;20387;-56
2022/06/13 10:27:23;;;;;;;;;;;;;;;21.86;34.22;98214.09;5096715;28;19926;-56
2022/06/13 10:30:18;;;;;;;;;;;;;;;21.70;35.89;98219.84;5098620;28;20335;-56
2022/06/13 10:33:17;;;;;;;;;;;;;;;21.71;33.98;98219.44;5094954;28;19963;-57
2022/06/13 10:36:10;;;;;;;;;;;;;;;21.96;36.02;98227.25;5098705;28;19927;-52
2022/06/13 10:39:01;;;;;;;;;;;;;;;22.13;32.88;98210.06;5089743;28;20484;-56
2022/06/13 10:41:52;;;;;;;;;;;;;;;22.06;36.32;98226.56;5087896;28;20014;-56
2022/06/13 10:44:41;;;;;;;;;;;;;;;22.11;36.67;98228.22;5091036;28;19974;-56
2022/06/13 10:47:33;;;;;;;;;;;;;;;22.07;36.13;98230.13;5095915;28;19920;-55
2022/06/13 10:50:22;;;;;;;;;;;;;;;21.92;32.64;98227.19;5096711;28;19935;-55
2022/06/13 10:53:13;;;;;;;;;;;;;;;22.02;34.91;98230.47;5097195;28;19924;-55
2022/06/13 10:56:05;;;;;;;;;;;;;;;21.91;34.91;98236.66;5089794;28;20063;-56
2022/06/13 10:58:58;;;;;;;;;;;;;;;21.91;35.46;98230.34;5094041;28;19923;-55
2022/06/13 11:01:52;;;;;;;;;;;;;;;21.92;34.71;98252.09;5096710;28;20242;-55
2022/06/13 11:04:42;;;;;;;;;;;;;;;22.04;33.94;98233.63;5087733;28;19920;-56
2022/06/13 11:07:31;;;;;;;;;;;;;;;21.80;32.41;98246.81;5097000;28;19920;-56
2022/06/13 11:10:28;;;;;;;;;;;;;;;21.75;36.59;98247.16;5089065;28;19972;-56
2022/06/13 11:13:18;;;;;;;;;;;;;;;21.72;34.59;98247.91;5093472;28;19931;-55
2022/06/13 11:22:38;;;;;;;;;;;;;;;21.52;33.60;98260.28;5093945;28;19920;-55
2022/06/13 11:25:28;;;;;;;;;;;;;;;21.47;33.46;98257.88;5099448;28;19928;-56
2022/06/13 11:28:21;;;;;;;;;;;;;;;21.55;33.24;98259.53;5094362;28;19959;-55
2022/06/13 11:31:15;;;;;;;;;;;;;;;21.82;29.79;98251.97;5098738;28;20320;-56
2022/06/13 11:34:16;;;;;;;;;;;;;;;21.86;32.35;98250.84;5094741;28;19924;-56
2022/06/13 11:37:09;;;;;;;;;;;;;;;21.89;32.65;98280.53;5094471;28;19923;-56
2022/06/13 11:40:00;;;;;;;;;;;;;;;21.60;32.12;98267.50;5094296;28;20411;-56
2022/06/13 11:42:51;;;;;;;;;;;;;;;21.44;30.92;98260.19;5091426;28;19954;-55
2022/06/13 11:45:40;;;;;;;;;;;;;;;21.62;32.71;98273.44;5096717;28;19924;-56
2022/06/13 11:48:29;;;;;;;;;;;;;;;21.66;29.19;98263.22;5097680;28;19924;-55
2022/06/13 11:51:19;;;;;;;;;;;;;;;21.75;33.66;98277.56;5088382;28;19938;-57
2022/06/13 11:54:15;;;;;;;;;;;;;;;21.77;30.49;98260.59;5087309;28;19927;-56
2022/06/13 11:57:34;;;;;;;;;;;;;;;21.60;30.42;98259.22;5084477;28;19935;-56
2022/06/13 12:00:26;;;;;;;;;;;;;;;21.30;32.39;98268.28;5008204;28;19932;-56
2022/06/13 12:03:17;;;;;;;;;;;;;;;21.48;31.44;98267.75;5087039;28;19927;-55
2022/06/13 12:06:08;;;;;;;;;;;;;;;21.62;31.35;98260.41;5095456;28;19920;-55
2022/06/13 12:09:03;;;;;;;;;;;;;;;21.71;30.00;98254.59;5081533;28;19925;-54
2022/06/13 12:12:00;;;;;;;;;;;;;;;21.57;29.85;98258.00;5100056;28;19959;-55
2022/06/13 12:14:48;;;;;;;;;;;;;;;21.68;33.92;98267.22;5093329;28;19962;-54
2022/06/13 12:17:40;;;;;;;;;;;;;;;21.68;32.70;98271.97;5092384;28;20064;-55
2022/06/13 12:20:29;;;;;;;;;;;;;;;21.70;30.47;98262.09;5093155;28;20283;-56
2022/06/13 12:23:21;;;;;;;;;;;;;;;21.79;32.35;98269.34;5086229;28;19924;-54
2022/06/13 12:26:18;;;;;;;;;;;;;;;21.87;32.64;98262.69;5095430;28;19932;-54
2022/06/13 12:29:09;;;;;;;;;;;;;;;21.64;32.23;98258.09;5094040;28;19943;-56
2022/06/13 12:32:01;;;;;;;;;;;;;;;21.75;31.69;98255.44;5095869;28;20291;-56
2022/06/13 12:34:54;;;;;;;;;;;;;;;21.80;30.09;98249.59;5093732;28;20010;-55
2022/06/13 12:37:45;;;;;;;;;;;;;;;21.81;32.01;98248.41;5095805;28;19951;-54
2022/06/13 12:40:42;;;;;;;;;;;;;;;21.92;30.31;98249.31;5102151;28;20335;-56
2022/06/13 12:43:39;;;;;;;;;;;;;;;21.98;30.03;98258.06;5087203;28;19924;-55
2022/06/13 12:46:31;;;;;;;;;;;;;;;22.00;29.79;98257.69;5088221;28;20136;-55
2022/06/13 12:49:32;;;;;;;;;;;;;;;21.92;29.82;98271.44;5084548;28;19920;-56
2022/06/13 12:52:26;;;;;;;;;;;;;;;21.85;28.16;98262.28;5099785;28;20027;-56
2022/06/13 12:55:19;;;;;;;;;;;;;;;21.65;29.82;98258.88;5093448;28;20015;-55
2022/06/13 12:58:16;;;;;;;;;;;;;;;21.55;29.81;98262.31;5096050;28;19924;-54
2022/06/13 13:01:08;;;;;;;;;;;;;;;21.54;32.17;98266.25;5097098;28;19924;-55
2022/06/13 13:04:02;;;;;;;;;;;;;;;21.64;32.92;98271.13;5094839;28;20004;-56
2022/06/13 13:10:11;;;;;;;;;;;;;;;21.80;29.64;98257.88;5086742;28;19924;-56
2022/06/13 13:13:17;;;;;;;;;;;;;;;21.86;31.12;98267.44;5098026;28;19927;-56
2022/06/13 13:16:07;;;;;;;;;;;;;;;21.94;31.92;98262.75;5083922;28;19985;-53
2022/06/13 13:19:07;;;;;;;;;;;;;;;22.02;32.93;98263.66;5093642;28;19920;-55
2022/06/13 13:22:04;;;;;;;;;;;;;;;22.02;30.09;98266.44;5091230;28;20097;-55
2022/06/13 13:24:59;;;;;;;;;;;;;;;22.08;32.60;98262.94;5092569;28;20207;-52
2022/06/13 13:28:00;;;;;;;;;;;;;;;21.94;29.65;98254.47;5097581;28;19923;-54
2022/06/13 13:30:58;;;;;;;;;;;;;;;21.78;28.89;98276.81;5092532;28;20223;-56
2022/06/13 13:34:00;;;;;;;;;;;;;;;21.89;31.10;98269.47;5097941;28;19920;-54
2022/06/13 13:36:52;;;;;;;;;;;;;;;21.73;30.90;98284.63;5100160;28;19993;-55
2022/06/13 13:40:07;;;;;;;;;;;;;;;21.51;32.28;98289.09;5100072;28;20281;-56
2022/06/13 13:43:05;;;;;;;;;;;;;;;21.38;30.23;98297.63;5093247;28;19931;-56
2022/06/13 13:45:54;;;;;;;;;;;;;;;21.35;30.78;98297.56;5101262;28;20053;-54
2022/06/13 13:48:44;;;;;;;;;;;;;;;21.55;32.07;98289.94;5087615;28;20537;-56
2022/06/13 13:51:33;;;;;;;;;;;;;;;21.56;32.17;98292.31;5102766;28;19931;-56
2022/06/13 13:54:51;;;;;;;;;;;;;;;21.66;30.80;98288.13;5095061;28;19978;-55
2022/06/13 13:57:41;;;;;;;;;;;;;;;21.70;32.76;98291.72;5101209;28;20061;-55
2022/06/13 14:00:33;;;;;;;;;;;;;;;21.55;32.88;98295.47;5102997;28;19934;-54
2022/06/13 14:03:24;;;;;;;;;;;;;;;21.39;32.68;98307.50;5088130;28;19926;-56
2022/06/13 14:06:14;;;;;;;;;;;;;;;21.35;31.31;98301.13;5082136;28;19924;-54
2022/06/13 14:09:03;;;;;;;;;;;;;;;21.54;31.48;98299.41;5081746;28;19964;-55
2022/06/13 14:12:08;;;;;;;;;;;;;;;21.65;31.14;98301.16;5095933;28;19932;-55
2022/06/13 14:15:09;;;;;;;;;;;;;;;21.53;30.87;98308.88;5087207;28;19920;-55
2022/06/13 14:17:59;;;;;;;;;;;;;;;21.41;30.99;98310.72;5096272;28;20389;-55
2022/06/13 14:20:50;;;;;;;;;;;;;;;21.35;32.66;98316.91;5102407;28;19928;-56
2022/06/13 14:23:43;;;;;;;;;;;;;;;21.63;31.17;98308.25;5089625;28;19927;-55
2022/06/13 14:26:33;;;;;;;;;;;;;;;21.95;32.03;98295.59;5100436;28;19920;-55
2022/06/13 14:32:41;;;;;;;;;;;;;;;21.47;32.38;98311.19;5091338;28;20424;-55
2022/06/13 14:35:48;;;;;;;;;;;;;;;21.42;33.48;98298.47;5080219;28;19924;-55
2022/06/13 14:38:41;;;;;;;;;;;;;;;21.45;32.98;98302.44;5079392;28;19924;-56
2022/06/13 14:41:36;;;;;;;;;;;;;;;21.50;31.29;98321.47;5090350;28;20327;-56
2022/06/13 14:44:26;;;;;;;;;;;;;;;21.66;31.72;98315.75;5059608;28;19925;-55
2022/06/13 14:47:44;;;;;;;;;;;;;;;21.71;33.71;98315.44;5048757;28;20302;-56
2022/06/13 14:50:43;;;;;;;;;;;;;;;21.49;31.77;98324.63;5052051;28;20011;-56
2022/06/13 14:53:44;;;;;;;;;;;;;;;21.37;30.64;98322.88;5057609;28;19924;-55
2022/06/13 14:56:42;;;;;;;;;;;;;;;21.24;31.68;98318.69;5046466;28;20380;-56
2022/06/13 15:03:03;;;;;;;;;;;;;;;21.88;32.64;98314.88;5059076;28;20206;-54
2022/06/13 15:05:54;;;;;;;;;;;;;;;22.04;30.87;98316.63;5054432;28;19928;-54
2022/06/13 15:08:56;;;;;;;;;;;;;;;21.91;31.52;98319.66;5048758;28;20193;-54
2022/06/13 15:11:45;;;;;;;;;;;;;;;21.90;32.32;98333.88;5056764;28;20011;-55
2022/06/13 15:17:50;;;;;;;;;;;;;;;21.82;33.47;98330.19;5047231;28;19928;-56
2022/06/13 15:20:43;;;;;;;;;;;;;;;21.55;33.80;98340.50;5050742;28;20412;-56
2022/06/13 15:23:33;;;;;;;;;;;;;;;21.35;33.89;98341.78;5058237;28;19931;-55
2022/06/13 15:26:25;;;;;;;;;;;;;;;21.28;34.21;98339.69;5059830;28;19924;-55
2022/06/13 15:29:16;;;;;;;;;;;;;;;21.33;34.60;98338.59;5050310;28;19951;-55
2022/06/13 15:32:24;;;;;;;;;;;;;;;21.54;35.58;98343.66;5058421;28;20153;-54
2022/06/13 15:35:14;;;;;;;;;;;;;;;21.52;33.64;98345.97;5054178;28;20395;-56
2022/06/13 15:38:03;;;;;;;;;;;;;;;21.62;33.95;98351.66;5055657;28;19920;-56
2022/06/13 15:40:54;;;;;;;;;;;;;;;21.71;33.45;98335.59;5048522;28;19929;-57
2022/06/13 15:43:45;;;;;;;;;;;;;;;21.57;33.75;98338.19;5062378;28;20088;-55
2022/06/13 15:46:35;;;;;;;;;;;;;;;21.39;34.50;98342.63;5096893;28;19931;-55
2022/06/13 15:49:24;;;;;;;;;;;;;;;21.32;35.46;98337.81;5095793;28;19920;-53
2022/06/13 15:52:17;;;;;;;;;;;;;;;21.25;33.78;98336.84;5078599;28;20087;-53
2022/06/13 15:55:11;;;;;;;;;;;;;;;21.18;33.01;98334.78;5093509;28;20410;-55
2022/06/13 15:58:01;;;;;;;;;;;;;;;21.27;35.27;98332.56;5095928;28;19928;-55
2022/06/13 16:00:52;;;;;;;;;;;;;;;21.41;33.05;98343.88;5105590;28;19927;-57
2022/06/13 16:03:41;;;;;;;;;;;;;;;21.39;32.37;98340.66;5081259;28;19920;-56
2022/06/13 16:06:38;;;;;;;;;;;;;;;21.00;32.91;98344.78;5078920;28;19920;-56
2022/06/13 16:09:28;;;;;;;;;;;;;;;20.87;33.35;98346.91;5081385;28;19939;-55
2022/06/13 16:12:17;;;;;;;;;;;;;;;20.79;32.93;98342.44;5077580;28;19972;-55